createdAt,value
2022-09-10T00:01:55.703Z,16.15
2022-09-10T00:04:22.130Z,15.96
2022-09-10T00:06:48.670Z,15.87
2022-09-10T00:09:15.111Z,15.97
2022-09-10T00:11:41.975Z,15.99
2022-09-10T00:14:10.370Z,15.92
2022-09-10T00:16:36.867Z,15.99
2022-09-10T00:19:03.704Z,15.87
2022-09-10T00:21:30.200Z,15.94
2022-09-10T00:23:57.067Z,15.95
2022-09-10T00:26:24.709Z,15.86
2022-09-10T00:28:52.310Z,15.97
2022-09-10T00:31:19.500Z,16.13
2022-09-10T00:33:46.043Z,16.64
2022-09-10T00:36:24.146Z,16.68
2022-09-10T00:38:53.331Z,16.62
2022-09-10T00:41:20.786Z,16.12
2022-09-10T00:43:48.975Z,15.81
2022-09-10T00:46:27.205Z,16.00
2022-09-10T00:48:56.512Z,15.84
2022-09-10T00:51:23.885Z,15.78
2022-09-10T00:53:51.599Z,15.74
2022-09-10T00:56:18.197Z,15.71
2022-09-10T00:58:46.214Z,15.86
2022-09-10T01:01:13.482Z,15.93
2022-09-10T01:03:41.110Z,15.93
2022-09-10T01:06:07.755Z,15.94
2022-09-10T01:08:34.336Z,15.89
2022-09-10T01:11:11.274Z,15.77
2022-09-10T01:13:43.610Z,15.84
2022-09-10T01:16:16.672Z,15.67
2022-09-10T01:18:46.050Z,15.44
2022-09-10T01:21:20.078Z,15.61
2022-09-10T01:24:05.121Z,15.43
2022-09-10T01:26:58.929Z,15.57
2022-09-10T01:29:25.396Z,15.30
2022-09-10T01:31:55.543Z,15.44
2022-09-10T01:34:27.084Z,15.46
2022-09-10T01:36:56.242Z,15.51
2022-09-10T01:39:24.004Z,16.17
2022-09-10T01:41:53.053Z,15.98
2022-09-10T01:44:43.168Z,15.69
2022-09-10T01:47:29.066Z,15.55
2022-09-10T01:50:03.846Z,15.59
2022-09-10T01:52:42.176Z,15.79
2022-09-10T01:55:20.711Z,16.13
2022-09-10T01:58:10.773Z,16.03
2022-09-10T02:00:47.271Z,16.29
2022-09-10T02:03:16.341Z,16.18
2022-09-10T02:05:48.631Z,15.59
2022-09-10T02:08:18.161Z,15.46
2022-09-10T02:11:02.034Z,15.39
2022-09-10T02:13:34.150Z,15.35
2022-09-10T02:16:34.368Z,15.61
2022-09-10T02:19:02.347Z,15.92
2022-09-10T02:21:30.871Z,15.99
2022-09-10T02:24:08.123Z,15.94
2022-09-10T02:26:38.086Z,15.66
2022-09-10T02:29:06.787Z,15.70
2022-09-10T02:31:33.366Z,15.80
2022-09-10T02:33:59.975Z,15.86
2022-09-10T02:36:28.310Z,15.78
2022-09-10T02:38:56.837Z,15.78
2022-09-10T02:41:25.947Z,15.75
2022-09-10T02:43:54.137Z,15.74
2022-09-10T02:46:21.056Z,15.67
2022-09-10T02:48:47.585Z,15.70
2022-09-10T02:51:14.054Z,15.42
2022-09-10T02:53:40.557Z,15.37
2022-09-10T02:56:08.604Z,15.43
2022-09-10T02:58:36.182Z,15.37
2022-09-10T03:01:12.120Z,15.48
2022-09-10T03:03:39.179Z,15.32
2022-09-10T03:06:05.745Z,15.11
2022-09-10T03:08:32.227Z,15.17
2022-09-10T03:10:59.830Z,15.27
2022-09-10T03:13:27.656Z,15.63
2022-09-10T03:15:56.240Z,15.62
2022-09-10T03:18:25.553Z,15.36
2022-09-10T03:20:52.911Z,15.39
2022-09-10T03:23:19.669Z,15.33
2022-09-10T03:25:49.597Z,15.26
2022-09-10T03:28:17.211Z,15.51
2022-09-10T03:30:43.838Z,15.60
2022-09-10T03:33:11.876Z,15.55
2022-09-10T03:35:40.317Z,15.30
2022-09-10T03:38:06.902Z,15.25
2022-09-10T03:40:34.126Z,15.04
2022-09-10T03:43:01.175Z,15.13
2022-09-10T03:45:28.636Z,15.13
2022-09-10T03:47:55.842Z,15.23
2022-09-10T03:50:22.393Z,15.02
2022-09-10T03:52:50.541Z,14.96
2022-09-10T03:55:17.926Z,15.13
2022-09-10T03:57:45.675Z,14.98
2022-09-10T04:00:14.501Z,14.94
2022-09-10T04:02:46.469Z,14.89
2022-09-10T04:05:13.681Z,14.98
2022-09-10T04:07:40.127Z,15.08
2022-09-10T04:10:07.074Z,14.93
2022-09-10T04:12:33.545Z,14.67
2022-09-10T04:15:01.827Z,14.63
2022-09-10T04:17:28.330Z,14.56
2022-09-10T04:19:54.972Z,14.66
2022-09-10T04:22:22.452Z,14.71
2022-09-10T04:24:49.745Z,14.66
2022-09-10T04:27:16.901Z,14.63
2022-09-10T04:29:44.026Z,14.40
2022-09-10T04:32:10.468Z,14.28
2022-09-10T04:34:36.968Z,14.48
2022-09-10T04:37:03.430Z,14.32
2022-09-10T04:39:31.513Z,14.33
2022-09-10T04:41:58.633Z,14.20
2022-09-10T04:44:26.364Z,14.25
2022-09-10T04:46:52.992Z,14.30
2022-09-10T04:49:19.612Z,14.40
2022-09-10T04:51:46.854Z,14.47
2022-09-10T04:54:14.555Z,14.47
2022-09-10T04:56:43.168Z,14.33
2022-09-10T04:59:10.802Z,14.24
2022-09-10T05:01:37.758Z,14.35
2022-09-10T05:04:05.104Z,14.24
2022-09-10T05:06:35.141Z,14.10
2022-09-10T05:09:03.733Z,14.16
2022-09-10T05:11:31.401Z,14.52
2022-09-10T05:13:58.341Z,14.97
2022-09-10T05:16:27.990Z,14.78
2022-09-10T05:18:54.822Z,14.76
2022-09-10T05:21:21.413Z,14.81
2022-09-10T05:23:48.442Z,14.84
2022-09-10T05:26:14.923Z,15.02
2022-09-10T05:28:42.586Z,15.10
2022-09-10T05:31:12.905Z,15.61
2022-09-10T05:33:40.849Z,15.51
2022-09-10T05:36:10.735Z,15.82
2022-09-10T05:38:40.099Z,15.73
2022-09-10T05:41:10.734Z,15.44
2022-09-10T05:43:41.912Z,15.39
2022-09-10T05:46:10.461Z,15.44
2022-09-10T05:48:41.766Z,15.34
2022-09-10T05:51:10.332Z,15.22
2022-09-10T05:53:38.252Z,15.51
2022-09-10T05:56:07.306Z,16.27
2022-09-10T05:58:35.100Z,16.43
2022-09-10T06:01:01.723Z,16.97
2022-09-10T06:03:28.417Z,17.29
2022-09-10T06:05:59.458Z,17.32
2022-09-10T06:08:30.453Z,17.41
2022-09-10T06:11:03.054Z,17.42
2022-09-10T06:13:35.296Z,17.18
2022-09-10T06:16:02.308Z,17.75
2022-09-10T06:18:28.990Z,17.87
2022-09-10T06:21:02.839Z,18.34
2022-09-10T06:23:31.285Z,17.87
2022-09-10T06:26:04.009Z,18.65
2022-09-10T06:28:32.516Z,19.01
2022-09-10T06:30:59.651Z,19.02
2022-09-10T06:33:26.264Z,19.31
2022-09-10T06:35:57.037Z,18.43
2022-09-10T06:38:24.806Z,19.14
2022-09-10T06:40:55.409Z,19.52
2022-09-10T06:43:23.502Z,19.54
2022-09-10T06:49:12.681Z,19.50
2022-09-10T06:51:42.498Z,20.07
2022-09-10T06:54:10.062Z,20.11
2022-09-10T06:56:37.261Z,20.97
2022-09-10T06:59:04.301Z,20.01
2022-09-10T07:01:38.200Z,20.46
2022-09-10T07:04:06.425Z,20.63
2022-09-10T07:06:34.753Z,20.15
2022-09-10T07:09:05.593Z,20.23
2022-09-10T07:11:41.198Z,21.27
2022-09-10T07:14:12.966Z,20.97
2022-09-10T07:16:44.345Z,22.34
2022-09-10T07:19:13.249Z,22.04
2022-09-10T07:21:43.216Z,22.10
2022-09-10T07:24:14.705Z,22.93
2022-09-10T07:27:11.091Z,23.25
2022-09-10T07:29:40.389Z,22.73
2022-09-10T07:32:13.464Z,23.32
2022-09-10T07:34:40.372Z,23.52
2022-09-10T07:37:07.582Z,23.54
2022-09-10T07:39:34.376Z,24.39
2022-09-10T07:42:02.614Z,23.25
2022-09-10T07:44:33.298Z,22.87
2022-09-10T07:47:03.357Z,22.40
2022-09-10T07:49:31.563Z,22.70
2022-09-10T07:52:00.251Z,22.77
2022-09-10T07:54:31.912Z,24.21
2022-09-10T07:56:59.897Z,25.10
2022-09-10T07:59:27.089Z,24.99
2022-09-10T08:02:01.433Z,23.76
2022-09-10T08:04:36.458Z,24.01
2022-09-10T08:07:05.742Z,23.28
2022-09-10T08:09:34.226Z,23.63
2022-09-10T08:12:02.321Z,22.35
2022-09-10T08:14:28.780Z,21.81
2022-09-10T08:16:55.935Z,22.19
2022-09-10T08:19:22.752Z,21.81
2022-09-10T08:21:51.148Z,22.06
2022-09-10T08:24:23.541Z,21.82
2022-09-10T08:26:50.615Z,22.21
2022-09-10T08:29:18.109Z,22.25
2022-09-10T08:31:44.696Z,23.43
2022-09-10T08:34:17.745Z,23.88
2022-09-10T08:36:50.549Z,23.49
2022-09-10T08:39:17.072Z,24.99
2022-09-10T08:41:52.673Z,25.67
2022-09-10T08:44:35.572Z,23.97
2022-09-10T08:47:19.867Z,23.54
2022-09-10T08:50:09.033Z,24.00
2022-09-10T08:52:41.505Z,23.93
2022-09-10T08:55:18.266Z,22.26
2022-09-10T08:57:48.947Z,22.63
2022-09-10T09:00:18.929Z,22.02
2022-09-10T09:02:57.733Z,21.87
2022-09-10T09:05:28.244Z,22.34
2022-09-10T09:07:58.586Z,22.79
2022-09-10T09:10:41.805Z,22.70
2022-09-10T09:13:16.047Z,23.04
2022-09-10T09:15:51.632Z,24.29
2022-09-10T09:18:45.235Z,24.52
2022-09-10T09:21:24.136Z,24.95
2022-09-10T09:24:14.207Z,25.70
2022-09-10T09:26:49.225Z,24.40
2022-09-10T09:29:20.397Z,24.52
2022-09-10T09:31:50.124Z,24.63
2022-09-10T09:34:23.974Z,25.66
2022-09-10T09:36:52.742Z,26.37
2022-09-10T09:39:27.706Z,26.90
2022-09-10T09:41:59.178Z,25.52
2022-09-10T09:44:35.305Z,25.93
2022-09-10T09:47:02.003Z,25.40
2022-09-10T09:49:29.096Z,26.23
2022-09-10T09:51:58.646Z,25.45
2022-09-10T09:54:57.154Z,25.93
2022-09-10T09:57:15.490Z,26.53
2022-09-10T09:59:41.976Z,26.18
2022-09-10T10:02:13.266Z,26.96
2022-09-10T10:04:42.441Z,27.76
2022-09-10T10:07:09.072Z,28.08
2022-09-10T10:09:41.452Z,28.77
2022-09-10T10:12:16.146Z,27.91
2022-09-10T10:14:42.855Z,27.75
2022-09-10T10:17:32.621Z,27.42
2022-09-10T10:20:10.229Z,26.51
2022-09-10T10:22:38.064Z,27.79
2022-09-10T10:25:06.310Z,26.87
2022-09-10T10:27:36.644Z,28.07
2022-09-10T10:30:07.265Z,28.83
2022-09-10T10:32:40.471Z,27.20
2022-09-10T10:35:10.165Z,27.58
2022-09-10T10:38:09.019Z,27.82
2022-09-10T10:40:38.318Z,28.34
2022-09-10T10:43:19.112Z,27.76
2022-09-10T10:45:56.141Z,28.33
2022-09-10T10:48:41.434Z,27.68
2022-09-10T10:51:14.891Z,28.10
2022-09-10T10:53:49.985Z,28.52
2022-09-10T10:56:29.787Z,28.19
2022-09-10T10:59:23.505Z,28.44
2022-09-10T11:02:01.099Z,30.02
2022-09-10T11:04:48.727Z,27.66
2022-09-10T11:07:15.223Z,29.83
2022-09-10T11:09:51.970Z,29.53
2022-09-10T11:12:20.653Z,27.41
2022-09-10T11:14:49.614Z,27.00
2022-09-10T11:17:19.838Z,29.01
2022-09-10T11:20:05.161Z,29.31
2022-09-10T11:22:41.779Z,28.80
2022-09-10T11:25:08.543Z,28.19
2022-09-10T11:27:38.260Z,28.25
2022-09-10T11:30:06.625Z,26.86
2022-09-10T11:32:39.845Z,27.75
2022-09-10T11:35:23.614Z,28.53
2022-09-10T11:37:52.823Z,28.63
2022-09-10T11:40:46.254Z,29.35
2022-09-10T11:43:39.803Z,29.29
2022-09-10T11:46:12.945Z,29.09
2022-09-10T11:48:42.585Z,27.90
2022-09-10T11:51:14.103Z,28.90
2022-09-10T11:53:41.116Z,28.25
2022-09-10T11:56:19.653Z,27.93
2022-09-10T11:58:52.237Z,27.17
2022-09-10T12:01:29.981Z,27.17
2022-09-10T12:04:07.440Z,26.29
2022-09-10T12:06:33.833Z,26.50
2022-09-10T12:09:00.850Z,26.18
2022-09-10T12:11:36.574Z,25.87
2022-09-10T12:14:07.454Z,25.27
2022-09-10T12:16:41.798Z,25.25
2022-09-10T12:19:18.338Z,25.65
2022-09-10T12:21:48.863Z,25.61
2022-09-10T12:24:25.665Z,25.39
2022-09-10T12:26:53.553Z,25.81
2022-09-10T12:29:46.041Z,25.95
2022-09-10T12:32:15.398Z,26.59
2022-09-10T12:34:41.825Z,26.23
2022-09-10T12:37:19.787Z,25.88
2022-09-10T12:39:46.640Z,26.56
2022-09-10T12:42:23.795Z,26.17
2022-09-10T12:44:50.354Z,26.03
2022-09-10T12:47:16.779Z,25.99
2022-09-10T12:49:47.740Z,25.73
2022-09-10T12:52:20.358Z,25.89
2022-09-10T12:54:52.651Z,25.98
2022-09-10T12:57:38.722Z,26.02
2022-09-10T13:00:38.122Z,25.80
2022-09-10T13:03:07.372Z,25.57
2022-09-10T13:05:39.798Z,25.24
2022-09-10T13:08:15.241Z,24.94
2022-09-10T13:10:43.494Z,24.72
2022-09-10T13:13:26.030Z,24.45
2022-09-10T13:15:53.577Z,24.00
2022-09-10T13:18:25.487Z,24.09
2022-09-10T13:20:52.319Z,24.27
2022-09-10T13:23:23.245Z,23.82
2022-09-10T13:25:50.894Z,23.62
2022-09-10T13:28:36.886Z,23.30
2022-09-10T13:31:03.676Z,23.84
2022-09-10T13:33:33.222Z,23.76
2022-09-10T13:36:02.631Z,23.76
2022-09-10T13:38:52.340Z,23.99
2022-09-10T13:41:35.125Z,23.95
2022-09-10T13:44:20.454Z,24.06
2022-09-10T13:46:50.358Z,23.42
2022-09-10T13:49:29.143Z,23.31
2022-09-10T13:51:57.435Z,23.08
2022-09-10T13:54:31.253Z,22.94
2022-09-10T13:57:01.103Z,23.04
2022-09-10T13:59:31.161Z,22.73
2022-09-10T14:01:59.460Z,23.43
2022-09-10T14:04:31.990Z,22.92
2022-09-10T14:07:21.709Z,22.53
2022-09-10T14:09:52.850Z,22.67
2022-09-10T14:12:23.357Z,22.03
2022-09-10T14:14:52.841Z,22.26
2022-09-10T14:17:31.526Z,22.29
2022-09-10T14:20:02.237Z,22.29
2022-09-10T14:22:29.222Z,22.03
2022-09-10T14:24:56.455Z,21.84
2022-09-10T14:27:26.929Z,21.82
2022-09-10T14:29:57.605Z,21.71
2022-09-10T14:32:36.250Z,21.12
2022-09-10T14:35:22.905Z,20.55
2022-09-10T14:37:50.412Z,20.51
2022-09-10T14:40:20.832Z,20.53
2022-09-10T14:42:48.829Z,20.40
2022-09-10T14:45:50.881Z,20.35
2022-09-10T14:48:37.010Z,19.96
2022-09-10T14:51:10.605Z,19.83
2022-09-10T14:53:37.443Z,19.46
2022-09-10T14:56:05.127Z,19.39
2022-09-10T14:58:31.782Z,19.22
2022-09-10T15:00:58.565Z,19.10
2022-09-10T15:03:25.122Z,19.03
2022-09-10T15:05:51.513Z,18.96
2022-09-10T15:08:17.933Z,19.05
2022-09-10T15:10:44.325Z,18.97
2022-09-10T15:13:14.869Z,18.96
2022-09-10T15:15:41.397Z,18.94
2022-09-10T15:18:14.630Z,18.75
2022-09-10T15:20:41.399Z,18.80
2022-09-10T15:23:07.822Z,18.84
2022-09-10T15:25:40.321Z,18.74
2022-09-10T15:28:09.822Z,18.71
2022-09-10T15:30:36.833Z,18.74
2022-09-10T15:33:06.739Z,18.87
2022-09-10T15:35:33.203Z,18.81
2022-09-10T15:38:01.625Z,18.93
2022-09-10T15:40:28.072Z,18.92
2022-09-10T15:42:54.668Z,18.94
2022-09-10T15:45:21.142Z,18.88
2022-09-10T15:47:47.599Z,18.94
2022-09-10T15:50:16.194Z,18.93
2022-09-10T15:52:44.816Z,18.85
2022-09-10T15:55:12.394Z,18.83
2022-09-10T15:57:40.319Z,19.43
2022-09-10T16:00:07.423Z,19.46
2022-09-10T16:02:34.359Z,19.34
2022-09-10T16:05:03.888Z,19.14
2022-09-10T16:07:30.446Z,19.46
2022-09-10T16:09:58.708Z,19.41
2022-09-10T16:12:28.152Z,19.45
2022-09-10T16:14:55.734Z,19.45
2022-09-10T16:17:22.150Z,19.22
2022-09-10T16:19:49.588Z,19.22
2022-09-10T16:22:20.400Z,19.07
2022-09-10T16:24:47.193Z,19.15
2022-09-10T16:27:13.634Z,19.29
2022-09-10T16:29:43.507Z,19.17
2022-09-10T16:32:10.811Z,19.06
2022-09-10T16:34:38.561Z,19.21
2022-09-10T16:37:05.259Z,19.32
2022-09-10T16:39:31.770Z,19.28
2022-09-10T16:41:58.198Z,19.12
2022-09-10T16:44:24.737Z,19.15
2022-09-10T16:46:51.253Z,18.86
2022-09-10T16:49:19.646Z,18.75
2022-09-10T16:51:47.269Z,18.54
2022-09-10T16:54:14.496Z,18.64
2022-09-10T16:56:42.521Z,18.34
2022-09-10T16:59:17.550Z,18.12
2022-09-10T17:01:45.017Z,17.94
2022-09-10T17:04:19.219Z,17.90
2022-09-10T17:06:47.219Z,18.07
2022-09-10T17:09:14.241Z,17.85
2022-09-10T17:11:40.869Z,17.87
2022-09-10T17:14:08.260Z,17.77
2022-09-10T17:16:39.149Z,17.61
2022-09-10T17:19:11.488Z,17.60
2022-09-10T17:21:38.705Z,17.46
2022-09-10T17:24:07.050Z,17.59
2022-09-10T17:26:33.989Z,17.71
2022-09-10T17:29:01.772Z,17.92
2022-09-10T17:31:29.532Z,17.82
2022-09-10T17:33:56.946Z,17.81
2022-09-10T17:36:25.233Z,17.76
2022-09-10T17:38:53.597Z,17.67
2022-09-10T17:41:20.938Z,17.73
2022-09-10T17:43:47.523Z,17.76
2022-09-10T17:46:15.484Z,17.43
2022-09-10T17:48:45.262Z,17.24
2022-09-10T17:51:13.411Z,17.38
2022-09-10T17:53:40.100Z,17.31
2022-09-10T17:56:07.942Z,17.07
2022-09-10T17:58:34.593Z,17.20
2022-09-10T18:01:02.460Z,17.15
2022-09-10T18:03:29.953Z,17.05
2022-09-10T18:05:57.099Z,17.30
2022-09-10T18:08:23.781Z,17.15
2022-09-10T18:10:50.838Z,17.15
2022-09-10T18:13:19.471Z,17.30
2022-09-10T18:15:49.349Z,17.32
2022-09-10T18:18:15.865Z,17.57
2022-09-10T18:20:42.959Z,17.72
2022-09-10T18:23:09.747Z,17.70
2022-09-10T18:25:36.178Z,17.45
2022-09-10T18:28:03.073Z,17.41
2022-09-10T18:30:29.658Z,17.26
2022-09-10T18:32:56.131Z,17.47
2022-09-10T18:35:23.007Z,17.58
2022-09-10T18:37:52.625Z,17.44
2022-09-10T18:40:19.537Z,17.38
2022-09-10T18:42:47.712Z,17.81
2022-09-10T18:45:14.354Z,17.78
2022-09-10T18:47:45.094Z,17.59
2022-09-10T18:50:13.228Z,18.13
2022-09-10T18:52:39.747Z,17.15
2022-09-10T18:55:06.445Z,16.95
2022-09-10T18:57:32.930Z,17.27
2022-09-10T18:59:59.740Z,17.80
2022-09-10T19:02:26.254Z,17.50
2022-09-10T19:05:11.676Z,17.35
2022-09-10T19:07:38.695Z,17.22
2022-09-10T19:10:06.989Z,17.03
2022-09-10T19:12:33.633Z,17.16
2022-09-10T19:15:00.438Z,17.14
2022-09-10T19:17:26.927Z,16.91
2022-09-10T19:19:53.340Z,16.98
2022-09-10T19:22:19.953Z,16.54
2022-09-10T19:24:55.723Z,16.55
2022-09-10T19:27:22.701Z,16.53
2022-09-10T19:29:49.875Z,16.53
2022-09-10T19:32:17.123Z,16.30
2022-09-10T19:34:43.765Z,16.14
2022-09-10T19:37:10.463Z,16.07
2022-09-10T19:39:37.092Z,16.26
2022-09-10T19:42:04.061Z,16.14
2022-09-10T19:44:30.497Z,15.95
2022-09-10T19:46:56.965Z,15.80
2022-09-10T19:49:23.475Z,15.59
2022-09-10T19:51:49.874Z,15.59
2022-09-10T19:54:16.437Z,15.38
2022-09-10T19:56:43.730Z,15.63
2022-09-10T19:59:10.395Z,16.07
2022-09-10T20:01:38.803Z,16.07
2022-09-10T20:04:06.732Z,15.60
2022-09-10T20:06:33.986Z,15.39
2022-09-10T20:09:00.942Z,15.43
2022-09-10T20:11:29.857Z,15.19
2022-09-10T20:13:57.376Z,15.06
2022-09-10T20:16:25.076Z,15.12
2022-09-10T20:18:52.010Z,15.73
2022-09-10T20:21:29.915Z,15.71
2022-09-10T20:23:56.619Z,15.48
2022-09-10T20:26:25.187Z,15.21
2022-09-10T20:28:53.567Z,15.39
2022-09-10T20:31:20.635Z,15.22
2022-09-10T20:33:49.190Z,15.16
2022-09-10T20:36:16.559Z,14.91
2022-09-10T20:38:43.473Z,14.76
2022-09-10T20:41:11.804Z,14.78
2022-09-10T20:43:38.414Z,14.65
2022-09-10T20:46:05.112Z,14.77
2022-09-10T20:48:31.690Z,14.67
2022-09-10T20:50:58.854Z,14.67
2022-09-10T20:53:26.515Z,14.83
2022-09-10T20:56:00.785Z,14.83
2022-09-10T20:58:27.242Z,14.87
2022-09-10T21:00:55.942Z,14.69
2022-09-10T21:03:23.287Z,14.79
2022-09-10T21:05:50.054Z,14.67
2022-09-10T21:08:16.494Z,14.66
2022-09-10T21:10:42.979Z,14.46
2022-09-10T21:13:09.689Z,14.63
2022-09-10T21:15:36.140Z,14.80
2022-09-10T21:18:02.557Z,14.73
2022-09-10T21:20:29.131Z,14.49
2022-09-10T21:22:56.281Z,14.36
2022-09-10T21:25:22.820Z,14.27
2022-09-10T21:27:49.341Z,14.25
2022-09-10T21:30:15.812Z,14.11
2022-09-10T21:32:42.246Z,14.17
2022-09-10T21:35:08.978Z,14.22
2022-09-10T21:37:35.673Z,14.39
2022-09-10T21:40:02.528Z,14.09
2022-09-10T21:42:28.974Z,14.54
2022-09-10T21:44:55.433Z,14.04
2022-09-10T21:47:21.891Z,14.04
2022-09-10T21:49:48.436Z,13.93
2022-09-10T21:52:14.884Z,13.90
2022-09-10T21:54:41.370Z,13.85
2022-09-10T21:57:10.909Z,13.94
2022-09-10T21:59:37.397Z,14.20
2022-09-10T22:02:04.312Z,14.07
2022-09-10T22:04:30.812Z,13.93
2022-09-10T22:06:57.639Z,14.16
2022-09-10T22:09:24.438Z,14.08
2022-09-10T22:11:54.034Z,13.79
2022-09-10T22:14:22.158Z,13.90
2022-09-10T22:16:48.657Z,13.88
2022-09-10T22:19:18.061Z,13.94
2022-09-10T22:21:44.893Z,13.79
2022-09-10T22:24:12.034Z,14.03
2022-09-10T22:26:43.336Z,13.94
2022-09-10T22:29:09.929Z,13.88
2022-09-10T22:31:36.517Z,13.92
2022-09-10T22:34:07.723Z,13.98
2022-09-10T22:36:35.605Z,14.02
2022-09-10T22:39:03.786Z,13.96
2022-09-10T22:41:31.634Z,13.88
2022-09-10T22:43:58.297Z,13.54
2022-09-10T22:46:27.893Z,13.55
2022-09-10T22:48:54.641Z,13.72
2022-09-10T22:51:25.372Z,13.49
2022-09-10T22:53:53.242Z,13.67
2022-09-10T22:56:22.165Z,13.76
2022-09-10T22:58:52.184Z,13.56
2022-09-10T23:01:20.390Z,13.51
2022-09-10T23:03:48.099Z,13.44
2022-09-10T23:06:16.121Z,13.35
2022-09-10T23:08:44.007Z,13.25
2022-09-10T23:11:11.329Z,13.43
2022-09-10T23:13:37.995Z,13.52
2022-09-10T23:16:12.011Z,13.44
2022-09-10T23:18:39.550Z,13.51
2022-09-10T23:21:06.476Z,13.58
2022-09-10T23:23:32.929Z,13.36
2022-09-10T23:26:03.497Z,13.45
2022-09-10T23:28:29.969Z,13.48
2022-09-10T23:31:06.324Z,13.55
2022-09-10T23:33:33.044Z,13.35
2022-09-10T23:35:59.485Z,13.48
2022-09-10T23:38:26.007Z,13.46
2022-09-10T23:40:52.742Z,13.28
2022-09-10T23:43:19.157Z,13.39
2022-09-10T23:45:45.582Z,13.32
2022-09-10T23:48:12.021Z,13.13
2022-09-10T23:50:38.440Z,12.98
2022-09-10T23:53:05.473Z,12.80
2022-09-10T23:55:36.171Z,12.82
2022-09-10T23:58:03.310Z,13.03
